sensor_id;sensor_type;location;lat;lon;timestamp;P1;durP1;ratioP1;P2;durP2;ratioP2
16119;SDS011;12670;53.502;10.252;2022-09-11T00:00:38;45.97;;;24.60;;
16119;SDS011;12670;53.502;10.252;2022-09-11T00:03:42;43.37;;;24.27;;
16119;SDS011;12670;53.502;10.252;2022-09-11T00:06:46;43.07;;;25.20;;
16119;SDS011;12670;53.502;10.252;2022-09-11T00:09:50;45.33;;;24.23;;
16119;SDS011;12670;53.502;10.252;2022-09-11T00:12:52;43.07;;;23.93;;
16119;SDS011;12670;53.502;10.252;2022-09-11T00:15:55;46.07;;;24.83;;
16119;SDS011;12670;53.502;10.252;2022-09-11T00:18:59;43.00;;;23.50;;
16119;SDS011;12670;53.502;10.252;2022-09-11T00:22:03;47.70;;;25.20;;
16119;SDS011;12670;53.502;10.252;2022-09-11T00:25:07;47.60;;;24.93;;
16119;SDS011;12670;53.502;10.252;2022-09-11T00:28:11;43.40;;;23.90;;
16119;SDS011;12670;53.502;10.252;2022-09-11T00:31:17;42.07;;;23.47;;
16119;SDS011;12670;53.502;10.252;2022-09-11T00:34:20;41.87;;;22.13;;
16119;SDS011;12670;53.502;10.252;2022-09-11T00:37:23;48.90;;;23.10;;
16119;SDS011;12670;53.502;10.252;2022-09-11T00:40:27;46.73;;;23.83;;
16119;SDS011;12670;53.502;10.252;2022-09-11T00:43:47;42.50;;;23.63;;
16119;SDS011;12670;53.502;10.252;2022-09-11T00:46:53;42.63;;;24.43;;
16119;SDS011;12670;53.502;10.252;2022-09-11T00:49:59;46.10;;;25.33;;
16119;SDS011;12670;53.502;10.252;2022-09-11T00:53:08;47.23;;;25.53;;
16119;SDS011;12670;53.502;10.252;2022-09-11T00:56:17;54.37;;;27.53;;
16119;SDS011;12670;53.502;10.252;2022-09-11T00:59:20;50.17;;;25.63;;
16119;SDS011;12670;53.502;10.252;2022-09-11T01:02:27;51.47;;;26.77;;
16119;SDS011;12670;53.502;10.252;2022-09-11T01:05:32;55.60;;;27.10;;
16119;SDS011;12670;53.502;10.252;2022-09-11T01:08:38;48.37;;;26.20;;
16119;SDS011;12670;53.502;10.252;2022-09-11T01:11:44;50.17;;;26.67;;
16119;SDS011;12670;53.502;10.252;2022-09-11T01:14:56;52.70;;;27.03;;
16119;SDS011;12670;53.502;10.252;2022-09-11T01:18:05;53.07;;;26.37;;
16119;SDS011;12670;53.502;10.252;2022-09-11T01:21:24;54.30;;;26.17;;
16119;SDS011;12670;53.502;10.252;2022-09-11T01:24:49;51.90;;;27.23;;
16119;SDS011;12670;53.502;10.252;2022-09-11T01:27:57;45.07;;;23.80;;
16119;SDS011;12670;53.502;10.252;2022-09-11T01:31:04;47.63;;;24.83;;
16119;SDS011;12670;53.502;10.252;2022-09-11T01:34:11;51.70;;;26.13;;
16119;SDS011;12670;53.502;10.252;2022-09-11T01:37:22;41.40;;;23.27;;
16119;SDS011;12670;53.502;10.252;2022-09-11T01:40:30;45.20;;;23.80;;
16119;SDS011;12670;53.502;10.252;2022-09-11T01:43:40;41.73;;;21.53;;
16119;SDS011;12670;53.502;10.252;2022-09-11T01:46:49;49.70;;;24.03;;
16119;SDS011;12670;53.502;10.252;2022-09-11T01:49:54;44.23;;;24.00;;
16119;SDS011;12670;53.502;10.252;2022-09-11T01:53:04;47.23;;;23.57;;
16119;SDS011;12670;53.502;10.252;2022-09-11T01:56:10;49.60;;;25.27;;
16119;SDS011;12670;53.502;10.252;2022-09-11T01:59:23;48.13;;;24.97;;
16119;SDS011;12670;53.502;10.252;2022-09-11T02:02:32;46.20;;;24.23;;
16119;SDS011;12670;53.502;10.252;2022-09-11T02:05:38;48.77;;;24.50;;
16119;SDS011;12670;53.502;10.252;2022-09-11T02:08:47;48.20;;;25.40;;
16119;SDS011;12670;53.502;10.252;2022-09-11T02:11:52;48.03;;;24.70;;
16119;SDS011;12670;53.502;10.252;2022-09-11T02:14:58;47.33;;;24.03;;
16119;SDS011;12670;53.502;10.252;2022-09-11T02:18:01;49.73;;;24.50;;
16119;SDS011;12670;53.502;10.252;2022-09-11T02:21:10;42.50;;;22.13;;
16119;SDS011;12670;53.502;10.252;2022-09-11T02:24:13;46.77;;;21.30;;
16119;SDS011;12670;53.502;10.252;2022-09-11T02:27:17;46.80;;;20.90;;
16119;SDS011;12670;53.502;10.252;2022-09-11T02:30:25;44.17;;;21.60;;
16119;SDS011;12670;53.502;10.252;2022-09-11T02:33:29;43.77;;;21.93;;
16119;SDS011;12670;53.502;10.252;2022-09-11T02:36:52;42.93;;;21.60;;
16119;SDS011;12670;53.502;10.252;2022-09-11T02:43:36;45.63;;;22.10;;
16119;SDS011;12670;53.502;10.252;2022-09-11T02:46:53;43.27;;;21.17;;
16119;SDS011;12670;53.502;10.252;2022-09-11T02:50:07;43.43;;;21.00;;
16119;SDS011;12670;53.502;10.252;2022-09-11T02:53:17;38.80;;;19.07;;
16119;SDS011;12670;53.502;10.252;2022-09-11T02:56:30;42.57;;;20.23;;
16119;SDS011;12670;53.502;10.252;2022-09-11T02:59:41;40.20;;;19.07;;
16119;SDS011;12670;53.502;10.252;2022-09-11T03:02:52;42.97;;;19.97;;
16119;SDS011;12670;53.502;10.252;2022-09-11T03:05:55;47.40;;;19.73;;
16119;SDS011;12670;53.502;10.252;2022-09-11T03:08:57;45.93;;;19.53;;
16119;SDS011;12670;53.502;10.252;2022-09-11T03:12:00;39.63;;;19.47;;
16119;SDS011;12670;53.502;10.252;2022-09-11T03:15:03;42.57;;;19.23;;
16119;SDS011;12670;53.502;10.252;2022-09-11T03:18:08;40.80;;;18.10;;
16119;SDS011;12670;53.502;10.252;2022-09-11T03:21:11;37.07;;;17.07;;
16119;SDS011;12670;53.502;10.252;2022-09-11T03:24:14;45.50;;;19.90;;
16119;SDS011;12670;53.502;10.252;2022-09-11T03:27:17;48.93;;;20.67;;
16119;SDS011;12670;53.502;10.252;2022-09-11T03:30:19;41.33;;;20.50;;
16119;SDS011;12670;53.502;10.252;2022-09-11T03:33:24;42.10;;;19.57;;
16119;SDS011;12670;53.502;10.252;2022-09-11T03:36:26;40.73;;;19.57;;
16119;SDS011;12670;53.502;10.252;2022-09-11T03:39:29;43.53;;;20.17;;
16119;SDS011;12670;53.502;10.252;2022-09-11T03:42:31;43.47;;;19.07;;
16119;SDS011;12670;53.502;10.252;2022-09-11T03:45:34;38.30;;;17.87;;
16119;SDS011;12670;53.502;10.252;2022-09-11T03:48:38;40.83;;;19.00;;
16119;SDS011;12670;53.502;10.252;2022-09-11T03:51:40;42.87;;;20.40;;
16119;SDS011;12670;53.502;10.252;2022-09-11T03:54:43;37.03;;;17.63;;
16119;SDS011;12670;53.502;10.252;2022-09-11T03:57:47;39.43;;;19.00;;
16119;SDS011;12670;53.502;10.252;2022-09-11T04:00:50;43.03;;;19.13;;
16119;SDS011;12670;53.502;10.252;2022-09-11T04:03:54;40.23;;;18.67;;
16119;SDS011;12670;53.502;10.252;2022-09-11T04:06:57;44.70;;;19.70;;
16119;SDS011;12670;53.502;10.252;2022-09-11T04:10:00;40.30;;;18.67;;
16119;SDS011;12670;53.502;10.252;2022-09-11T04:13:02;40.10;;;18.67;;
16119;SDS011;12670;53.502;10.252;2022-09-11T04:16:06;41.20;;;19.57;;
16119;SDS011;12670;53.502;10.252;2022-09-11T04:19:11;37.63;;;17.97;;
16119;SDS011;12670;53.502;10.252;2022-09-11T04:22:14;34.87;;;17.33;;
16119;SDS011;12670;53.502;10.252;2022-09-11T04:25:17;39.37;;;18.10;;
16119;SDS011;12670;53.502;10.252;2022-09-11T04:28:19;37.67;;;17.07;;
16119;SDS011;12670;53.502;10.252;2022-09-11T04:31:22;33.47;;;16.87;;
16119;SDS011;12670;53.502;10.252;2022-09-11T04:34:27;33.23;;;15.30;;
16119;SDS011;12670;53.502;10.252;2022-09-11T04:37:30;34.63;;;16.50;;
16119;SDS011;12670;53.502;10.252;2022-09-11T04:40:35;31.83;;;15.83;;
16119;SDS011;12670;53.502;10.252;2022-09-11T04:43:38;31.30;;;15.87;;
16119;SDS011;12670;53.502;10.252;2022-09-11T04:46:41;29.60;;;15.20;;
16119;SDS011;12670;53.502;10.252;2022-09-11T04:49:46;28.07;;;15.57;;
16119;SDS011;12670;53.502;10.252;2022-09-11T04:52:49;26.83;;;13.90;;
16119;SDS011;12670;53.502;10.252;2022-09-11T04:55:59;26.27;;;14.07;;
16119;SDS011;12670;53.502;10.252;2022-09-11T04:59:04;24.77;;;13.77;;
16119;SDS011;12670;53.502;10.252;2022-09-11T05:02:13;22.77;;;12.87;;
16119;SDS011;12670;53.502;10.252;2022-09-11T05:05:17;23.53;;;12.03;;
16119;SDS011;12670;53.502;10.252;2022-09-11T05:08:22;25.00;;;13.10;;
16119;SDS011;12670;53.502;10.252;2022-09-11T05:11:26;25.37;;;12.37;;
16119;SDS011;12670;53.502;10.252;2022-09-11T05:14:30;26.27;;;13.43;;
16119;SDS011;12670;53.502;10.252;2022-09-11T05:17:33;24.20;;;12.83;;
16119;SDS011;12670;53.502;10.252;2022-09-11T05:20:36;27.77;;;13.57;;
16119;SDS011;12670;53.502;10.252;2022-09-11T05:23:40;28.87;;;14.33;;
16119;SDS011;12670;53.502;10.252;2022-09-11T05:26:43;26.93;;;14.40;;
16119;SDS011;12670;53.502;10.252;2022-09-11T05:29:46;27.40;;;14.10;;
16119;SDS011;12670;53.502;10.252;2022-09-11T05:32:50;20.20;;;12.00;;
16119;SDS011;12670;53.502;10.252;2022-09-11T05:36:01;21.20;;;12.23;;
16119;SDS011;12670;53.502;10.252;2022-09-11T05:39:05;24.03;;;12.77;;
16119;SDS011;12670;53.502;10.252;2022-09-11T05:42:07;23.90;;;12.47;;
16119;SDS011;12670;53.502;10.252;2022-09-11T05:45:10;25.03;;;12.70;;
16119;SDS011;12670;53.502;10.252;2022-09-11T05:48:12;24.93;;;12.70;;
16119;SDS011;12670;53.502;10.252;2022-09-11T05:51:18;23.80;;;12.43;;
16119;SDS011;12670;53.502;10.252;2022-09-11T05:54:22;27.03;;;13.03;;
16119;SDS011;12670;53.502;10.252;2022-09-11T05:57:24;24.40;;;12.47;;
16119;SDS011;12670;53.502;10.252;2022-09-11T06:00:27;22.70;;;11.70;;
16119;SDS011;12670;53.502;10.252;2022-09-11T06:03:30;21.53;;;11.63;;
16119;SDS011;12670;53.502;10.252;2022-09-11T06:06:34;20.97;;;10.90;;
16119;SDS011;12670;53.502;10.252;2022-09-11T06:09:37;23.80;;;11.50;;
16119;SDS011;12670;53.502;10.252;2022-09-11T06:12:39;27.00;;;12.77;;
16119;SDS011;12670;53.502;10.252;2022-09-11T06:15:43;24.13;;;11.73;;
16119;SDS011;12670;53.502;10.252;2022-09-11T06:18:47;26.47;;;12.27;;
16119;SDS011;12670;53.502;10.252;2022-09-11T06:21:52;25.03;;;12.67;;
16119;SDS011;12670;53.502;10.252;2022-09-11T06:24:56;24.00;;;11.50;;
16119;SDS011;12670;53.502;10.252;2022-09-11T06:27:58;25.03;;;11.93;;
16119;SDS011;12670;53.502;10.252;2022-09-11T06:31:01;28.40;;;12.80;;
16119;SDS011;12670;53.502;10.252;2022-09-11T06:34:05;26.90;;;12.07;;
16119;SDS011;12670;53.502;10.252;2022-09-11T06:37:09;25.93;;;12.67;;
16119;SDS011;12670;53.502;10.252;2022-09-11T06:40:12;27.73;;;13.27;;
16119;SDS011;12670;53.502;10.252;2022-09-11T06:43:14;27.97;;;12.57;;
16119;SDS011;12670;53.502;10.252;2022-09-11T06:46:17;23.73;;;12.17;;
16119;SDS011;12670;53.502;10.252;2022-09-11T06:49:21;27.40;;;12.53;;
16119;SDS011;12670;53.502;10.252;2022-09-11T06:52:25;27.80;;;12.57;;
16119;SDS011;12670;53.502;10.252;2022-09-11T06:55:29;27.60;;;12.50;;
16119;SDS011;12670;53.502;10.252;2022-09-11T06:58:31;25.63;;;12.07;;
16119;SDS011;12670;53.502;10.252;2022-09-11T07:01:34;24.17;;;12.07;;
16119;SDS011;12670;53.502;10.252;2022-09-11T07:04:37;23.80;;;12.40;;
16119;SDS011;12670;53.502;10.252;2022-09-11T07:07:41;24.07;;;12.83;;
16119;SDS011;12670;53.502;10.252;2022-09-11T07:10:44;23.13;;;12.60;;
16119;SDS011;12670;53.502;10.252;2022-09-11T07:13:46;21.80;;;11.93;;
16119;SDS011;12670;53.502;10.252;2022-09-11T07:16:49;22.80;;;11.30;;
16119;SDS011;12670;53.502;10.252;2022-09-11T07:19:55;18.33;;;10.70;;
16119;SDS011;12670;53.502;10.252;2022-09-11T07:22:59;21.97;;;11.50;;
16119;SDS011;12670;53.502;10.252;2022-09-11T07:26:02;19.73;;;10.63;;
16119;SDS011;12670;53.502;10.252;2022-09-11T07:29:06;18.47;;;10.47;;
16119;SDS011;12670;53.502;10.252;2022-09-11T07:32:08;16.30;;;9.37;;
16119;SDS011;12670;53.502;10.252;2022-09-11T07:35:11;12.90;;;8.23;;
16119;SDS011;12670;53.502;10.252;2022-09-11T07:38:23;13.73;;;7.23;;
16119;SDS011;12670;53.502;10.252;2022-09-11T07:41:26;11.87;;;7.07;;
16119;SDS011;12670;53.502;10.252;2022-09-11T07:44:29;9.90;;;6.47;;
16119;SDS011;12670;53.502;10.252;2022-09-11T07:47:31;10.07;;;6.33;;
16119;SDS011;12670;53.502;10.252;2022-09-11T07:50:34;9.73;;;6.07;;
16119;SDS011;12670;53.502;10.252;2022-09-11T07:53:39;7.17;;;5.17;;
16119;SDS011;12670;53.502;10.252;2022-09-11T07:56:43;7.50;;;4.73;;
16119;SDS011;12670;53.502;10.252;2022-09-11T07:59:45;5.43;;;3.87;;
16119;SDS011;12670;53.502;10.252;2022-09-11T08:02:48;6.60;;;4.20;;
16119;SDS011;12670;53.502;10.252;2022-09-11T08:05:55;7.40;;;4.70;;
16119;SDS011;12670;53.502;10.252;2022-09-11T08:09:01;8.20;;;3.97;;
16119;SDS011;12670;53.502;10.252;2022-09-11T08:12:05;6.87;;;3.40;;
16119;SDS011;12670;53.502;10.252;2022-09-11T08:15:08;4.80;;;3.47;;
16119;SDS011;12670;53.502;10.252;2022-09-11T08:18:11;6.70;;;3.50;;
16119;SDS011;12670;53.502;10.252;2022-09-11T08:21:13;4.90;;;2.63;;
16119;SDS011;12670;53.502;10.252;2022-09-11T08:24:18;29.87;;;6.20;;
16119;SDS011;12670;53.502;10.252;2022-09-11T08:27:21;6.00;;;4.60;;
16119;SDS011;12670;53.502;10.252;2022-09-11T08:30:24;8.43;;;4.37;;
16119;SDS011;12670;53.502;10.252;2022-09-11T08:33:26;4.53;;;3.20;;
16119;SDS011;12670;53.502;10.252;2022-09-11T08:36:30;4.47;;;2.80;;
16119;SDS011;12670;53.502;10.252;2022-09-11T08:39:34;3.40;;;3.10;;
16119;SDS011;12670;53.502;10.252;2022-09-11T08:42:37;5.63;;;2.93;;
16119;SDS011;12670;53.502;10.252;2022-09-11T08:45:42;5.53;;;3.23;;
16119;SDS011;12670;53.502;10.252;2022-09-11T08:48:46;4.37;;;3.10;;
16119;SDS011;12670;53.502;10.252;2022-09-11T08:51:55;4.37;;;2.57;;
16119;SDS011;12670;53.502;10.252;2022-09-11T08:55:03;3.60;;;3.00;;
16119;SDS011;12670;53.502;10.252;2022-09-11T08:58:08;3.00;;;2.43;;
16119;SDS011;12670;53.502;10.252;2022-09-11T09:01:19;3.87;;;2.90;;
16119;SDS011;12670;53.502;10.252;2022-09-11T09:08:07;3.77;;;2.20;;
16119;SDS011;12670;53.502;10.252;2022-09-11T09:11:21;4.27;;;2.87;;
16119;SDS011;12670;53.502;10.252;2022-09-11T09:14:44;4.27;;;2.57;;
16119;SDS011;12670;53.502;10.252;2022-09-11T09:17:58;3.20;;;2.40;;
16119;SDS011;12670;53.502;10.252;2022-09-11T09:21:09;3.17;;;2.00;;
16119;SDS011;12670;53.502;10.252;2022-09-11T09:24:14;4.33;;;1.90;;
16119;SDS011;12670;53.502;10.252;2022-09-11T09:27:23;2.50;;;1.97;;
16119;SDS011;12670;53.502;10.252;2022-09-11T09:30:33;6.00;;;2.97;;
16119;SDS011;12670;53.502;10.252;2022-09-11T09:33:42;3.33;;;2.27;;
16119;SDS011;12670;53.502;10.252;2022-09-11T09:36:51;2.77;;;2.30;;
16119;SDS011;12670;53.502;10.252;2022-09-11T09:40:00;4.53;;;2.30;;
16119;SDS011;12670;53.502;10.252;2022-09-11T09:43:14;2.53;;;2.13;;
16119;SDS011;12670;53.502;10.252;2022-09-11T09:46:31;4.50;;;1.90;;
16119;SDS011;12670;53.502;10.252;2022-09-11T09:49:42;2.40;;;2.00;;
16119;SDS011;12670;53.502;10.252;2022-09-11T09:52:46;4.40;;;2.03;;
16119;SDS011;12670;53.502;10.252;2022-09-11T09:55:50;2.03;;;1.57;;
16119;SDS011;12670;53.502;10.252;2022-09-11T09:58:57;2.47;;;1.60;;
16119;SDS011;12670;53.502;10.252;2022-09-11T10:02:03;1.90;;;1.50;;
16119;SDS011;12670;53.502;10.252;2022-09-11T10:05:13;4.90;;;1.83;;
16119;SDS011;12670;53.502;10.252;2022-09-11T10:08:29;2.47;;;1.55;;
16119;SDS011;12670;53.502;10.252;2022-09-11T10:11:34;2.03;;;1.60;;
16119;SDS011;12670;53.502;10.252;2022-09-11T10:14:40;2.15;;;1.63;;
16119;SDS011;12670;53.502;10.252;2022-09-11T10:17:53;2.83;;;1.95;;
16119;SDS011;12670;53.502;10.252;2022-09-11T10:21:21;3.53;;;2.17;;
16119;SDS011;12670;53.502;10.252;2022-09-11T10:24:25;1.67;;;1.40;;
16119;SDS011;12670;53.502;10.252;2022-09-11T10:27:32;2.22;;;1.65;;
16119;SDS011;12670;53.502;10.252;2022-09-11T10:30:42;4.07;;;1.58;;
16119;SDS011;12670;53.502;10.252;2022-09-11T10:33:58;3.35;;;1.75;;
16119;SDS011;12670;53.502;10.252;2022-09-11T10:37:03;3.28;;;1.52;;
16119;SDS011;12670;53.502;10.252;2022-09-11T10:40:17;2.47;;;1.30;;
16119;SDS011;12670;53.502;10.252;2022-09-11T10:43:30;3.88;;;1.45;;
16119;SDS011;12670;53.502;10.252;2022-09-11T10:46:38;2.33;;;1.38;;
16119;SDS011;12670;53.502;10.252;2022-09-11T10:49:41;2.20;;;1.40;;
16119;SDS011;12670;53.502;10.252;2022-09-11T10:52:49;2.53;;;1.40;;
16119;SDS011;12670;53.502;10.252;2022-09-11T10:56:03;6.18;;;1.55;;
16119;SDS011;12670;53.502;10.252;2022-09-11T10:59:10;6.05;;;1.85;;
16119;SDS011;12670;53.502;10.252;2022-09-11T11:02:27;3.53;;;1.50;;
16119;SDS011;12670;53.502;10.252;2022-09-11T11:05:35;2.00;;;1.25;;
16119;SDS011;12670;53.502;10.252;2022-09-11T11:08:54;3.10;;;1.33;;
16119;SDS011;12670;53.502;10.252;2022-09-11T11:12:19;2.10;;;1.40;;
16119;SDS011;12670;53.502;10.252;2022-09-11T11:15:34;4.07;;;1.40;;
16119;SDS011;12670;53.502;10.252;2022-09-11T11:18:55;2.55;;;1.40;;
16119;SDS011;12670;53.502;10.252;2022-09-11T11:22:07;1.58;;;1.20;;
16119;SDS011;12670;53.502;10.252;2022-09-11T11:25:23;1.60;;;1.27;;
16119;SDS011;12670;53.502;10.252;2022-09-11T11:28:40;1.63;;;1.05;;
16119;SDS011;12670;53.502;10.252;2022-09-11T11:32:08;1.65;;;1.20;;
16119;SDS011;12670;53.502;10.252;2022-09-11T11:35:23;1.75;;;1.25;;
16119;SDS011;12670;53.502;10.252;2022-09-11T11:38:33;2.22;;;1.15;;
16119;SDS011;12670;53.502;10.252;2022-09-11T11:41:43;3.28;;;1.33;;
16119;SDS011;12670;53.502;10.252;2022-09-11T11:44:48;1.73;;;1.10;;
16119;SDS011;12670;53.502;10.252;2022-09-11T11:47:55;2.53;;;1.20;;
16119;SDS011;12670;53.502;10.252;2022-09-11T11:51:02;2.05;;;1.30;;
16119;SDS011;12670;53.502;10.252;2022-09-11T11:54:09;1.33;;;1.10;;
16119;SDS011;12670;53.502;10.252;2022-09-11T11:57:18;2.13;;;1.27;;
16119;SDS011;12670;53.502;10.252;2022-09-11T12:00:23;1.30;;;0.90;;
16119;SDS011;12670;53.502;10.252;2022-09-11T12:03:31;1.73;;;1.20;;
16119;SDS011;12670;53.502;10.252;2022-09-11T12:06:39;1.63;;;1.10;;
16119;SDS011;12670;53.502;10.252;2022-09-11T12:09:44;5.82;;;1.35;;
16119;SDS011;12670;53.502;10.252;2022-09-11T12:12:51;1.35;;;0.93;;
16119;SDS011;12670;53.502;10.252;2022-09-11T12:15:59;1.20;;;0.90;;
16119;SDS011;12670;53.502;10.252;2022-09-11T12:19:13;1.10;;;0.90;;
16119;SDS011;12670;53.502;10.252;2022-09-11T12:22:32;2.17;;;1.10;;
16119;SDS011;12670;53.502;10.252;2022-09-11T12:32:55;2.33;;;1.08;;
16119;SDS011;12670;53.502;10.252;2022-09-11T12:36:00;1.73;;;1.00;;
16119;SDS011;12670;53.502;10.252;2022-09-11T12:39:16;2.92;;;1.20;;
16119;SDS011;12670;53.502;10.252;2022-09-11T12:42:44;1.35;;;1.00;;
16119;SDS011;12670;53.502;10.252;2022-09-11T12:45:48;1.33;;;0.98;;
16119;SDS011;12670;53.502;10.252;2022-09-11T12:48:52;1.80;;;1.20;;
16119;SDS011;12670;53.502;10.252;2022-09-11T12:52:21;3.05;;;0.90;;
16119;SDS011;12670;53.502;10.252;2022-09-11T12:55:41;1.30;;;1.20;;
16119;SDS011;12670;53.502;10.252;2022-09-11T12:58:56;2.25;;;1.25;;
16119;SDS011;12670;53.502;10.252;2022-09-11T13:02:01;1.10;;;1.00;;
16119;SDS011;12670;53.502;10.252;2022-09-11T13:05:14;3.33;;;1.20;;
16119;SDS011;12670;53.502;10.252;2022-09-11T13:08:18;1.70;;;1.20;;
16119;SDS011;12670;53.502;10.252;2022-09-11T13:11:42;1.52;;;0.98;;
16119;SDS011;12670;53.502;10.252;2022-09-11T13:14:47;4.65;;;1.05;;
16119;SDS011;12670;53.502;10.252;2022-09-11T13:17:50;1.13;;;0.95;;
16119;SDS011;12670;53.502;10.252;2022-09-11T13:21:11;2.90;;;1.25;;
16119;SDS011;12670;53.502;10.252;2022-09-11T13:24:22;1.10;;;1.00;;
16119;SDS011;12670;53.502;10.252;2022-09-11T13:27:27;2.25;;;1.10;;
16119;SDS011;12670;53.502;10.252;2022-09-11T13:30:29;3.30;;;1.13;;
16119;SDS011;12670;53.502;10.252;2022-09-11T13:33:32;1.33;;;1.17;;
16119;SDS011;12670;53.502;10.252;2022-09-11T13:36:35;1.35;;;1.10;;
16119;SDS011;12670;53.502;10.252;2022-09-11T13:39:40;1.40;;;1.20;;
16119;SDS011;12670;53.502;10.252;2022-09-11T13:42:45;1.83;;;1.13;;
16119;SDS011;12670;53.502;10.252;2022-09-11T13:45:49;2.20;;;1.02;;
16119;SDS011;12670;53.502;10.252;2022-09-11T13:49:17;1.85;;;1.02;;
16119;SDS011;12670;53.502;10.252;2022-09-11T13:52:32;3.00;;;1.35;;
16119;SDS011;12670;53.502;10.252;2022-09-11T13:55:35;3.90;;;1.15;;
16119;SDS011;12670;53.502;10.252;2022-09-11T13:58:39;2.30;;;1.20;;
16119;SDS011;12670;53.502;10.252;2022-09-11T14:01:49;2.00;;;1.20;;
16119;SDS011;12670;53.502;10.252;2022-09-11T14:04:56;1.42;;;1.10;;
16119;SDS011;12670;53.502;10.252;2022-09-11T14:08:05;2.20;;;1.20;;
16119;SDS011;12670;53.502;10.252;2022-09-11T14:11:25;1.42;;;0.90;;
16119;SDS011;12670;53.502;10.252;2022-09-11T14:14:31;2.00;;;1.23;;
16119;SDS011;12670;53.502;10.252;2022-09-11T14:17:38;2.17;;;1.10;;
16119;SDS011;12670;53.502;10.252;2022-09-11T14:20:42;1.92;;;1.00;;
16119;SDS011;12670;53.502;10.252;2022-09-11T14:23:49;1.40;;;1.10;;
16119;SDS011;12670;53.502;10.252;2022-09-11T14:26:52;1.30;;;1.00;;
16119;SDS011;12670;53.502;10.252;2022-09-11T14:29:59;1.58;;;1.00;;
16119;SDS011;12670;53.502;10.252;2022-09-11T14:36:25;1.48;;;1.10;;
16119;SDS011;12670;53.502;10.252;2022-09-11T14:39:29;1.52;;;0.90;;
16119;SDS011;12670;53.502;10.252;2022-09-11T14:42:35;1.60;;;1.20;;
16119;SDS011;12670;53.502;10.252;2022-09-11T14:45:39;1.83;;;1.00;;
16119;SDS011;12670;53.502;10.252;2022-09-11T14:48:41;1.40;;;1.08;;
16119;SDS011;12670;53.502;10.252;2022-09-11T14:51:45;1.35;;;1.20;;
16119;SDS011;12670;53.502;10.252;2022-09-11T14:54:53;1.30;;;1.17;;
16119;SDS011;12670;53.502;10.252;2022-09-11T14:57:56;1.42;;;1.15;;
16119;SDS011;12670;53.502;10.252;2022-09-11T15:01:00;1.60;;;0.95;;
16119;SDS011;12670;53.502;10.252;2022-09-11T15:04:03;1.73;;;1.00;;
16119;SDS011;12670;53.502;10.252;2022-09-11T15:07:06;2.45;;;1.30;;
16119;SDS011;12670;53.502;10.252;2022-09-11T15:10:10;1.63;;;1.00;;
16119;SDS011;12670;53.502;10.252;2022-09-11T15:13:14;1.70;;;1.23;;
16119;SDS011;12670;53.502;10.252;2022-09-11T15:16:18;1.98;;;1.10;;
16119;SDS011;12670;53.502;10.252;2022-09-11T15:19:20;1.53;;;1.10;;
16119;SDS011;12670;53.502;10.252;2022-09-11T15:22:23;1.63;;;1.20;;
16119;SDS011;12670;53.502;10.252;2022-09-11T15:25:25;2.63;;;1.03;;
16119;SDS011;12670;53.502;10.252;2022-09-11T15:28:28;1.80;;;1.20;;
16119;SDS011;12670;53.502;10.252;2022-09-11T15:31:32;5.13;;;1.45;;
16119;SDS011;12670;53.502;10.252;2022-09-11T15:34:35;2.00;;;1.13;;
16119;SDS011;12670;53.502;10.252;2022-09-11T15:37:38;4.27;;;1.23;;
16119;SDS011;12670;53.502;10.252;2022-09-11T15:40:42;1.67;;;1.30;;
16119;SDS011;12670;53.502;10.252;2022-09-11T15:43:44;7.87;;;1.30;;
16119;SDS011;12670;53.502;10.252;2022-09-11T15:46:49;2.67;;;1.30;;
16119;SDS011;12670;53.502;10.252;2022-09-11T15:49:52;1.67;;;1.10;;
16119;SDS011;12670;53.502;10.252;2022-09-11T15:52:55;3.73;;;1.13;;
16119;SDS011;12670;53.502;10.252;2022-09-11T15:56:00;8.43;;;1.27;;
16119;SDS011;12670;53.502;10.252;2022-09-11T15:59:04;2.30;;;1.10;;
16119;SDS011;12670;53.502;10.252;2022-09-11T16:02:08;1.67;;;1.30;;
16119;SDS011;12670;53.502;10.252;2022-09-11T16:05:12;2.70;;;1.23;;
16119;SDS011;12670;53.502;10.252;2022-09-11T16:08:14;1.43;;;1.20;;
16119;SDS011;12670;53.502;10.252;2022-09-11T16:11:17;1.37;;;1.10;;
16119;SDS011;12670;53.502;10.252;2022-09-11T16:14:23;1.80;;;1.10;;
16119;SDS011;12670;53.502;10.252;2022-09-11T16:17:28;1.30;;;1.20;;
16119;SDS011;12670;53.502;10.252;2022-09-11T16:20:32;1.53;;;1.30;;
16119;SDS011;12670;53.502;10.252;2022-09-11T16:23:35;2.73;;;1.20;;
16119;SDS011;12670;53.502;10.252;2022-09-11T16:26:38;2.63;;;1.30;;
16119;SDS011;12670;53.502;10.252;2022-09-11T16:29:41;4.43;;;1.20;;
16119;SDS011;12670;53.502;10.252;2022-09-11T16:33:06;2.27;;;1.30;;
16119;SDS011;12670;53.502;10.252;2022-09-11T16:36:11;3.03;;;1.50;;
16119;SDS011;12670;53.502;10.252;2022-09-11T16:39:17;3.73;;;1.23;;
16119;SDS011;12670;53.502;10.252;2022-09-11T16:42:20;2.10;;;1.30;;
16119;SDS011;12670;53.502;10.252;2022-09-11T16:45:23;1.97;;;1.30;;
16119;SDS011;12670;53.502;10.252;2022-09-11T16:48:27;2.43;;;1.70;;
16119;SDS011;12670;53.502;10.252;2022-09-11T16:51:30;3.43;;;1.60;;
16119;SDS011;12670;53.502;10.252;2022-09-11T16:54:33;4.53;;;1.27;;
16119;SDS011;12670;53.502;10.252;2022-09-11T16:57:35;4.60;;;1.70;;
16119;SDS011;12670;53.502;10.252;2022-09-11T17:00:38;2.90;;;2.17;;
16119;SDS011;12670;53.502;10.252;2022-09-11T17:03:43;4.00;;;2.10;;
16119;SDS011;12670;53.502;10.252;2022-09-11T17:06:47;5.03;;;3.20;;
16119;SDS011;12670;53.502;10.252;2022-09-11T17:09:49;6.03;;;3.03;;
16119;SDS011;12670;53.502;10.252;2022-09-11T17:12:52;6.40;;;2.83;;
16119;SDS011;12670;53.502;10.252;2022-09-11T17:15:59;4.07;;;2.60;;
16119;SDS011;12670;53.502;10.252;2022-09-11T17:19:04;4.97;;;1.97;;
16119;SDS011;12670;53.502;10.252;2022-09-11T17:22:07;4.33;;;2.20;;
16119;SDS011;12670;53.502;10.252;2022-09-11T17:25:10;4.50;;;2.07;;
16119;SDS011;12670;53.502;10.252;2022-09-11T17:28:12;3.40;;;1.80;;
16119;SDS011;12670;53.502;10.252;2022-09-11T17:31:16;2.43;;;1.70;;
16119;SDS011;12670;53.502;10.252;2022-09-11T17:34:21;6.83;;;2.00;;
16119;SDS011;12670;53.502;10.252;2022-09-11T17:37:24;5.33;;;1.80;;
16119;SDS011;12670;53.502;10.252;2022-09-11T17:40:27;9.60;;;2.17;;
16119;SDS011;12670;53.502;10.252;2022-09-11T17:43:29;4.73;;;2.00;;
16119;SDS011;12670;53.502;10.252;2022-09-11T17:46:33;2.53;;;2.00;;
16119;SDS011;12670;53.502;10.252;2022-09-11T17:49:37;8.60;;;3.40;;
16119;SDS011;12670;53.502;10.252;2022-09-11T17:52:40;14.57;;;8.57;;
16119;SDS011;12670;53.502;10.252;2022-09-11T17:55:42;22.23;;;14.50;;
16119;SDS011;12670;53.502;10.252;2022-09-11T17:58:48;21.80;;;13.43;;
16119;SDS011;12670;53.502;10.252;2022-09-11T18:01:50;20.37;;;12.73;;
16119;SDS011;12670;53.502;10.252;2022-09-11T18:04:54;24.50;;;14.73;;
16119;SDS011;12670;53.502;10.252;2022-09-11T18:07:57;23.37;;;15.70;;
16119;SDS011;12670;53.502;10.252;2022-09-11T18:11:00;20.27;;;10.43;;
16119;SDS011;12670;53.502;10.252;2022-09-11T18:14:03;10.90;;;5.77;;
16119;SDS011;12670;53.502;10.252;2022-09-11T18:17:06;7.53;;;2.97;;
16119;SDS011;12670;53.502;10.252;2022-09-11T18:20:10;3.13;;;2.10;;
16119;SDS011;12670;53.502;10.252;2022-09-11T18:23:13;4.07;;;2.20;;
16119;SDS011;12670;53.502;10.252;2022-09-11T18:26:17;4.00;;;1.77;;
16119;SDS011;12670;53.502;10.252;2022-09-11T18:29:22;2.40;;;1.40;;